Time;durP1;ratioP1;P1;durP2;ratioP2;P2;SDS_P1;SDS_P2;PMS_P1;PMS_P2;Temp;Humidity;BMP_temperature;BMP_pressure;BME280_temperature;BME280_humidity;BME280_pressure;Samples;Min_cycle;Max_cycle;Signal;HPM_P1;HPM_P2
2023/03/04 06:06:26;;;;;;;82.88;38.63;;;;;;;;;;5530364;23;20235;-70
2023/03/04 06:08:53;;;;;;;77.13;35.95;;;;;;;;;;4977905;28;20224;-70
2023/03/04 06:11:20;;;;;;;67.60;34.47;;;;;;;;;;4986712;28;20220;-70
2023/03/04 06:13:47;;;;;;;78.65;36.47;;;;;;;;;;4985122;28;20207;-70
2023/03/04 06:16:14;;;;;;;72.30;34.58;;;;;;;;;;4978782;28;20226;-71
2023/03/04 06:18:41;;;;;;;73.95;35.08;;;;;;;;;;4977555;28;20211;-69
2023/03/04 06:21:08;;;;;;;74.40;34.13;;;;;;;;;;4976868;28;20210;-69
2023/03/04 06:23:37;;;;;;;69.80;35.03;;;;;;;;;;4976495;28;20622;-69
2023/03/04 06:26:08;;;;;;;68.05;34.30;;;;;;;;;;4975640;28;20223;-69
2023/03/04 06:28:35;;;;;;;70.82;37.28;;;;;;;;;;4976833;28;20198;-69
2023/03/04 06:31:02;;;;;;;70.13;37.17;;;;;;;;;;4976766;28;20255;-69
2023/03/04 06:33:29;;;;;;;73.78;35.38;;;;;;;;;;4976984;28;20266;-68
2023/03/04 06:35:57;;;;;;;64.88;32.53;;;;;;;;;;4977183;28;20231;-68
2023/03/04 06:38:24;;;;;;;70.18;34.80;;;;;;;;;;4980489;28;20204;-70
2023/03/04 06:40:52;;;;;;;73.88;36.08;;;;;;;;;;4980901;28;20203;-69
2023/03/04 06:43:19;;;;;;;71.97;35.50;;;;;;;;;;4978204;28;20203;-69
2023/03/04 06:45:47;;;;;;;65.60;33.60;;;;;;;;;;4977005;28;20227;-67
2023/03/04 06:48:14;;;;;;;70.50;34.03;;;;;;;;;;4977105;28;20203;-69
2023/03/04 06:50:41;;;;;;;67.78;34.47;;;;;;;;;;4977682;28;20219;-70
2023/03/04 06:53:08;;;;;;;63.40;32.83;;;;;;;;;;4977931;28;20635;-70
2023/03/04 06:55:35;;;;;;;69.38;33.47;;;;;;;;;;4977628;28;20234;-70
2023/03/04 06:58:03;;;;;;;61.50;31.92;;;;;;;;;;4977730;28;20204;-70
2023/03/04 07:00:30;;;;;;;65.00;31.27;;;;;;;;;;4977524;28;20195;-69
2023/03/04 07:02:59;;;;;;;54.55;29.73;;;;;;;;;;4977253;28;20551;-70
2023/03/04 07:05:26;;;;;;;57.40;30.95;;;;;;;;;;4977547;28;20606;-69
2023/03/04 07:07:53;;;;;;;56.00;29.10;;;;;;;;;;4978062;28;20211;-68
2023/03/04 07:10:20;;;;;;;61.10;30.73;;;;;;;;;;4977815;28;20211;-68
2023/03/04 07:12:47;;;;;;;61.05;29.95;;;;;;;;;;4977704;28;20667;-68
2023/03/04 07:15:15;;;;;;;59.13;30.73;;;;;;;;;;4977945;28;20330;-69
2023/03/04 07:17:42;;;;;;;59.53;30.90;;;;;;;;;;4977503;28;20571;-69
2023/03/04 07:20:10;;;;;;;56.58;30.02;;;;;;;;;;4978473;28;20202;-69
2023/03/04 07:22:37;;;;;;;57.92;30.58;;;;;;;;;;4977957;28;20211;-68
2023/03/04 07:25:04;;;;;;;57.83;29.30;;;;;;;;;;4978551;28;20215;-68
2023/03/04 07:27:31;;;;;;;49.67;29.15;;;;;;;;;;4978516;28;20235;-70
2023/03/04 07:29:58;;;;;;;54.83;29.60;;;;;;;;;;4977891;28;20574;-70
2023/03/04 07:32:27;;;;;;;53.58;28.88;;;;;;;;;;4978123;28;20207;-70
2023/03/04 07:34:54;;;;;;;52.58;29.02;;;;;;;;;;4978085;28;20207;-72
2023/03/04 07:37:21;;;;;;;49.15;27.55;;;;;;;;;;4978317;28;20230;-70
2023/03/04 07:39:48;;;;;;;52.53;29.02;;;;;;;;;;4977646;28;20660;-70
2023/03/04 07:42:15;;;;;;;54.53;29.10;;;;;;;;;;4978171;28;20273;-69
2023/03/04 07:44:42;;;;;;;53.17;29.55;;;;;;;;;;4978010;28;20560;-69
2023/03/04 07:47:09;;;;;;;55.08;30.08;;;;;;;;;;4976838;28;20710;-69
2023/03/04 07:49:38;;;;;;;51.78;29.40;;;;;;;;;;4977205;28;20211;-68
2023/03/04 07:52:05;;;;;;;51.53;29.48;;;;;;;;;;4977060;28;20230;-68
2023/03/04 07:54:32;;;;;;;50.08;29.08;;;;;;;;;;4976719;28;20212;-68
2023/03/04 07:56:59;;;;;;;49.05;28.48;;;;;;;;;;4976552;28;20231;-68
2023/03/04 07:59:26;;;;;;;57.45;29.13;;;;;;;;;;4977708;28;20208;-68
2023/03/04 08:01:53;;;;;;;52.33;30.55;;;;;;;;;;4977550;28;20226;-69
2023/03/04 08:04:20;;;;;;;52.95;30.35;;;;;;;;;;4977240;28;20254;-68
2023/03/04 08:06:49;;;;;;;56.53;28.75;;;;;;;;;;4977582;28;20239;-70
2023/03/04 08:09:16;;;;;;;50.00;28.90;;;;;;;;;;4977542;28;20567;-70
2023/03/04 08:11:44;;;;;;;56.95;30.52;;;;;;;;;;4977728;28;20706;-70
2023/03/04 08:14:12;;;;;;;53.72;31.25;;;;;;;;;;4977535;28;20210;-69
2023/03/04 08:16:39;;;;;;;51.95;30.85;;;;;;;;;;4977627;28;20238;-70
2023/03/04 08:19:06;;;;;;;49.13;28.50;;;;;;;;;;4977938;28;20206;-69
2023/03/04 08:21:34;;;;;;;48.55;29.58;;;;;;;;;;4977216;28;20690;-69
2023/03/04 08:24:06;;;;;;;52.38;30.83;;;;;;;;;;4977802;28;20214;-69
2023/03/04 08:26:37;;;;;;;53.38;31.15;;;;;;;;;;4977635;28;20231;-70
2023/03/04 08:29:05;;;;;;;51.83;32.17;;;;;;;;;;4976776;28;20286;-69
2023/03/04 08:31:32;;;;;;;59.42;33.97;;;;;;;;;;4976455;28;20231;-69
2023/03/04 08:34:00;;;;;;;56.78;33.47;;;;;;;;;;4976477;28;20672;-69
2023/03/04 08:36:27;;;;;;;57.10;34.20;;;;;;;;;;4976167;28;20234;-68
2023/03/04 08:38:54;;;;;;;56.25;35.08;;;;;;;;;;4976398;28;20666;-69
2023/03/04 08:41:24;;;;;;;54.13;32.60;;;;;;;;;;4976934;28;20199;-69
2023/03/04 08:43:51;;;;;;;62.22;36.85;;;;;;;;;;4976924;28;20195;-69
2023/03/04 08:46:18;;;;;;;57.85;35.50;;;;;;;;;;4976959;28;20327;-68
2023/03/04 08:48:45;;;;;;;55.10;33.63;;;;;;;;;;4975875;28;20231;-69
2023/03/04 08:51:13;;;;;;;59.00;34.78;;;;;;;;;;4974853;28;20226;-69
2023/03/04 08:53:41;;;;;;;64.03;36.13;;;;;;;;;;4975394;28;20207;-69
2023/03/04 08:56:08;;;;;;;59.42;34.70;;;;;;;;;;4974605;28;20223;-69
2023/03/04 08:58:37;;;;;;;57.50;32.83;;;;;;;;;;4974534;28;20233;-69
2023/03/04 09:01:04;;;;;;;59.47;31.75;;;;;;;;;;4974381;28;20203;-70
2023/03/04 09:03:31;;;;;;;55.85;32.08;;;;;;;;;;4974080;28;20254;-70
2023/03/04 09:05:58;;;;;;;54.05;32.08;;;;;;;;;;4974449;28;20223;-70
2023/03/04 09:08:26;;;;;;;63.50;34.08;;;;;;;;;;4974173;28;20214;-70
2023/03/04 09:10:53;;;;;;;59.92;33.15;;;;;;;;;;4974348;28;20212;-73
2023/03/04 09:13:21;;;;;;;56.90;32.78;;;;;;;;;;4974774;28;20214;-70
2023/03/04 09:15:50;;;;;;;75.75;34.55;;;;;;;;;;4974746;28;20231;-70
2023/03/04 09:18:18;;;;;;;55.47;32.38;;;;;;;;;;4974572;28;20188;-70
2023/03/04 09:20:45;;;;;;;61.42;34.67;;;;;;;;;;4974460;28;20227;-69
2023/03/04 09:23:12;;;;;;;63.80;32.90;;;;;;;;;;4973966;28;20643;-69
2023/03/04 09:25:40;;;;;;;58.92;33.28;;;;;;;;;;4974351;28;20234;-69
2023/03/04 09:28:07;;;;;;;66.88;36.58;;;;;;;;;;4974311;28;20203;-69
2023/03/04 09:30:34;;;;;;;70.53;34.55;;;;;;;;;;4974070;28;20206;-70
2023/03/04 09:33:03;;;;;;;66.38;36.05;;;;;;;;;;4974124;28;20203;-69
2023/03/04 09:35:30;;;;;;;64.53;34.25;;;;;;;;;;4973959;28;20207;-69
2023/03/04 13:57:48;;;;;;;21.80;13.32;;;;;;;;;;5551815;23;20679;-71
2023/03/04 14:00:15;;;;;;;21.92;13.07;;;;;;;;;;4997664;28;20213;-71
2023/03/04 14:02:43;;;;;;;22.45;13.32;;;;;;;;;;4996875;28;20608;-70
2023/03/04 14:05:12;;;;;;;29.17;15.07;;;;;;;;;;4997080;28;20202;-71
2023/03/04 14:07:39;;;;;;;22.00;13.98;;;;;;;;;;4996987;28;20226;-71
2023/03/04 14:10:07;;;;;;;25.35;14.65;;;;;;;;;;4997034;28;20619;-70
2023/03/04 14:12:36;;;;;;;27.05;14.38;;;;;;;;;;5018549;23;20230;-68
2023/03/04 14:15:17;;;;;;;24.70;13.95;;;;;;;;;;4996229;28;20565;-68
2023/03/04 14:17:46;;;;;;;25.30;14.00;;;;;;;;;;4996461;28;20258;-68
2023/03/04 14:20:23;;;;;;;26.35;13.25;;;;;;;;;;4996440;28;20210;-68
2023/03/04 14:22:50;;;;;;;22.45;13.32;;;;;;;;;;4996454;28;20218;-68
2023/03/04 14:25:21;;;;;;;22.63;13.93;;;;;;;;;;4996665;28;20198;-67
2023/03/04 14:27:48;;;;;;;26.80;14.02;;;;;;;;;;4996456;28;20205;-67
2023/03/04 14:30:22;;;;;;;23.48;13.15;;;;;;;;;;4996477;28;20218;-67
2023/03/04 14:32:49;;;;;;;22.70;14.02;;;;;;;;;;4996162;28;20223;-67
2023/03/04 14:35:20;;;;;;;24.02;14.45;;;;;;;;;;4996187;28;20202;-68
2023/03/04 14:37:49;;;;;;;24.50;13.93;;;;;;;;;;4996062;28;20573;-67
2023/03/04 14:40:20;;;;;;;20.92;13.38;;;;;;;;;;4996515;28;20190;-68
2023/03/04 14:42:48;;;;;;;26.85;14.85;;;;;;;;;;4997500;28;20245;-68
2023/03/04 14:45:16;;;;;;;25.52;14.23;;;;;;;;;;4995876;28;20203;-68
2023/03/04 14:47:46;;;;;;;29.17;14.25;;;;;;;;;;4996425;28;20202;-68
2023/03/04 14:50:14;;;;;;;25.63;13.85;;;;;;;;;;4996530;28;20198;-68
2023/03/04 14:52:43;;;;;;;25.40;13.77;;;;;;;;;;4996577;28;20234;-67
2023/03/04 14:55:20;;;;;;;28.30;14.48;;;;;;;;;;4996319;28;20205;-67
2023/03/04 14:57:48;;;;;;;29.30;15.18;;;;;;;;;;4996149;28;20183;-68
2023/03/04 15:00:16;;;;;;;23.67;14.13;;;;;;;;;;4995825;28;20728;-67
2023/03/04 15:02:44;;;;;;;25.30;15.20;;;;;;;;;;4995934;28;20214;-68
2023/03/04 15:05:17;;;;;;;23.38;14.20;;;;;;;;;;4995810;28;20206;-67
2023/03/04 15:07:44;;;;;;;24.38;14.25;;;;;;;;;;4995346;28;20665;-67
2023/03/04 15:10:12;;;;;;;20.67;13.25;;;;;;;;;;4995712;28;20202;-67
2023/03/04 15:12:39;;;;;;;27.05;14.07;;;;;;;;;;4995620;28;20222;-67
2023/03/04 15:15:27;;;;;;;23.65;14.27;;;;;;;;;;4995313;28;20606;-67
2023/03/04 15:17:59;;;;;;;23.17;14.38;;;;;;;;;;4995472;28;20588;-67
2023/03/04 15:20:27;;;;;;;28.33;16.08;;;;;;;;;;4995982;28;20191;-67
2023/03/04 15:22:58;;;;;;;26.65;16.25;;;;;;;;;;4995636;28;20222;-68
2023/03/04 15:25:25;;;;;;;28.42;16.42;;;;;;;;;;4995566;28;20230;-68
2023/03/04 15:27:53;;;;;;;29.75;16.00;;;;;;;;;;4995377;28;20623;-68
2023/03/04 15:30:22;;;;;;;27.60;16.10;;;;;;;;;;4995817;28;20310;-68
2023/03/04 15:32:49;;;;;;;26.58;16.15;;;;;;;;;;4994830;28;20586;-68
2023/03/04 15:35:19;;;;;;;28.92;16.50;;;;;;;;;;4995156;28;20199;-68
2023/03/04 15:37:47;;;;;;;27.35;16.08;;;;;;;;;;4995270;28;20203;-68
2023/03/04 15:40:15;;;;;;;26.08;15.65;;;;;;;;;;4995095;28;20210;-68
2023/03/04 15:42:42;;;;;;;27.90;15.43;;;;;;;;;;4994922;28;20226;-68
2023/03/04 15:45:16;;;;;;;26.33;15.20;;;;;;;;;;4994875;28;20202;-67
2023/03/04 15:47:43;;;;;;;28.50;15.98;;;;;;;;;;4994782;28;20186;-67
2023/03/04 15:50:11;;;;;;;25.05;14.40;;;;;;;;;;4994925;28;20202;-67
2023/03/04 15:52:40;;;;;;;28.17;15.82;;;;;;;;;;4994544;28;20293;-67
2023/03/04 15:55:07;;;;;;;30.90;17.45;;;;;;;;;;4994827;28;20206;-67
2023/03/04 15:57:34;;;;;;;29.95;16.95;;;;;;;;;;4995287;28;20187;-67
2023/03/04 16:00:01;;;;;;;28.63;16.70;;;;;;;;;;4994349;28;20207;-67
2023/03/04 16:02:29;;;;;;;29.85;16.60;;;;;;;;;;4994957;28;20305;-67
2023/03/04 16:04:56;;;;;;;28.88;16.50;;;;;;;;;;4995419;28;20202;-67
2023/03/04 16:07:25;;;;;;;28.27;16.15;;;;;;;;;;4994430;28;20202;-67
2023/03/04 16:09:55;;;;;;;30.38;17.90;;;;;;;;;;4994484;28;20273;-67
2023/03/04 16:12:22;;;;;;;29.88;17.10;;;;;;;;;;4994508;28;20226;-67
2023/03/04 16:14:50;;;;;;;30.23;17.52;;;;;;;;;;4994254;28;20206;-67
2023/03/04 16:17:18;;;;;;;31.77;16.33;;;;;;;;;;4994398;28;20537;-67
2023/03/04 16:19:45;;;;;;;30.00;17.42;;;;;;;;;;4994518;28;20218;-67
2023/03/04 16:22:14;;;;;;;30.08;17.38;;;;;;;;;;4994358;28;20230;-67
2023/03/04 16:24:41;;;;;;;35.80;19.00;;;;;;;;;;4994759;28;20209;-67
2023/03/04 16:27:12;;;;;;;42.17;23.52;;;;;;;;;;4994645;28;20199;-67
2023/03/04 16:29:39;;;;;;;37.30;19.77;;;;;;;;;;4994723;28;20183;-67
2023/03/04 16:32:07;;;;;;;32.90;19.25;;;;;;;;;;4994141;28;20231;-67
2023/03/04 16:34:34;;;;;;;36.13;20.50;;;;;;;;;;4994082;28;20547;-69
2023/03/04 16:37:03;;;;;;;33.95;18.73;;;;;;;;;;4994440;28;20209;-69
2023/03/04 16:39:30;;;;;;;32.90;18.38;;;;;;;;;;4994434;28;20226;-69
2023/03/04 16:41:57;;;;;;;32.78;18.70;;;;;;;;;;4994206;28;20214;-70
2023/03/04 16:44:26;;;;;;;33.40;18.30;;;;;;;;;;4993797;28;20685;-69
2023/03/04 16:46:53;;;;;;;34.85;18.33;;;;;;;;;;4994310;28;20206;-70
2023/03/04 16:49:20;;;;;;;30.60;18.00;;;;;;;;;;4994443;28;20183;-69
2023/03/04 16:51:48;;;;;;;33.08;18.63;;;;;;;;;;4993683;28;20788;-69
2023/03/04 16:54:17;;;;;;;29.95;17.08;;;;;;;;;;4994135;28;20229;-69
2023/03/04 16:56:44;;;;;;;36.70;19.45;;;;;;;;;;4994386;28;20253;-69
2023/03/04 16:59:15;;;;;;;34.72;19.20;;;;;;;;;;4994021;28;20202;-70
2023/03/04 17:01:44;;;;;;;37.03;18.25;;;;;;;;;;4994239;28;20313;-69
2023/03/04 17:04:11;;;;;;;35.00;20.20;;;;;;;;;;4994051;28;20203;-69
2023/03/04 17:06:38;;;;;;;42.90;22.20;;;;;;;;;;4993918;28;20206;-69
2023/03/04 17:09:05;;;;;;;33.90;19.35;;;;;;;;;;4994642;28;20551;-69
2023/03/04 17:11:33;;;;;;;33.75;20.02;;;;;;;;;;4997839;28;20230;-70
2023/03/04 17:14:00;;;;;;;33.00;19.20;;;;;;;;;;4997826;28;20218;-70
2023/03/04 17:16:27;;;;;;;36.35;20.45;;;;;;;;;;4997939;28;20187;-70
2023/03/04 17:18:55;;;;;;;34.92;20.48;;;;;;;;;;4997673;28;20253;-70
2023/03/04 17:21:23;;;;;;;36.25;19.83;;;;;;;;;;4997856;28;20202;-70
2023/03/04 17:23:51;;;;;;;34.63;19.52;;;;;;;;;;4998117;28;20199;-70
2023/03/04 17:26:19;;;;;;;34.67;19.77;;;;;;;;;;4997305;28;20605;-70
2023/03/04 17:28:46;;;;;;;36.67;20.95;;;;;;;;;;4997515;28;20265;-69
2023/03/04 17:31:14;;;;;;;39.55;22.58;;;;;;;;;;4997099;28;20737;-69
2023/03/04 17:33:42;;;;;;;37.90;21.95;;;;;;;;;;4997542;28;20230;-68
2023/03/04 17:36:11;;;;;;;39.65;20.13;;;;;;;;;;4997053;28;20610;-68
2023/03/04 17:38:38;;;;;;;34.70;19.50;;;;;;;;;;4997555;28;20203;-69
2023/03/04 17:41:06;;;;;;;34.60;18.70;;;;;;;;;;4997042;28;20673;-69
2023/03/04 17:43:33;;;;;;;35.15;18.58;;;;;;;;;;4996925;28;20702;-70
2023/03/04 17:46:04;;;;;;;37.60;19.00;;;;;;;;;;4997380;28;20300;-69
2023/03/04 17:48:31;;;;;;;38.50;19.25;;;;;;;;;;4997402;28;20198;-71
2023/03/04 17:50:58;;;;;;;33.88;17.85;;;;;;;;;;4997163;28;20207;-71
2023/03/04 17:53:26;;;;;;;34.78;19.65;;;;;;;;;;4997173;28;20219;-71
2023/03/04 17:55:54;;;;;;;34.35;19.17;;;;;;;;;;4996876;28;20682;-71
2023/03/04 17:58:22;;;;;;;41.97;19.75;;;;;;;;;;4997225;28;20207;-72
2023/03/04 18:00:49;;;;;;;35.70;21.33;;;;;;;;;;4997189;28;20206;-71
2023/03/04 18:03:16;;;;;;;38.42;21.60;;;;;;;;;;4997191;28;20241;-69
2023/03/04 18:05:43;;;;;;;50.83;26.77;;;;;;;;;;4996662;28;20693;-69
2023/03/04 18:08:11;;;;;;;38.22;21.75;;;;;;;;;;4996910;28;20543;-70
2023/03/04 18:10:39;;;;;;;43.90;22.73;;;;;;;;;;4996676;28;20542;-72
2023/03/04 18:13:07;;;;;;;41.55;22.27;;;;;;;;;;4996370;28;20222;-72
2023/03/04 18:15:34;;;;;;;40.25;21.90;;;;;;;;;;4996870;28;20210;-69
2023/03/04 18:18:01;;;;;;;40.50;21.40;;;;;;;;;;4996510;28;20233;-70
2023/03/04 18:20:28;;;;;;;41.50;21.20;;;;;;;;;;4996412;28;20574;-72
2023/03/04 18:22:57;;;;;;;38.80;21.92;;;;;;;;;;4996619;28;20222;-71
2023/03/04 18:25:24;;;;;;;40.95;22.88;;;;;;;;;;4996309;28;20686;-71
2023/03/04 18:27:53;;;;;;;45.90;24.48;;;;;;;;;;4996530;28;20202;-71
2023/03/04 18:30:25;;;;;;;40.28;21.30;;;;;;;;;;4996633;28;20202;-74
2023/03/04 18:32:53;;;;;;;39.70;22.55;;;;;;;;;;4996525;28;20237;-73
2023/03/04 18:35:20;;;;;;;43.28;22.23;;;;;;;;;;4996462;28;20199;-72
2023/03/04 18:37:47;;;;;;;47.80;23.75;;;;;;;;;;4997196;28;20202;-73
2023/03/04 18:40:14;;;;;;;45.97;24.08;;;;;;;;;;4996528;28;20207;-69
2023/03/04 18:42:42;;;;;;;44.05;22.83;;;;;;;;;;4996137;28;20277;-69
2023/03/04 18:45:12;;;;;;;42.92;23.35;;;;;;;;;;4995799;28;20213;-70
2023/03/04 18:47:39;;;;;;;49.15;24.63;;;;;;;;;;4995958;28;20210;-70
2023/03/04 18:50:07;;;;;;;43.78;23.92;;;;;;;;;;4995861;28;20198;-69
2023/03/04 18:52:34;;;;;;;40.40;23.42;;;;;;;;;;4995608;28;20741;-70
2023/03/04 18:55:01;;;;;;;48.83;25.60;;;;;;;;;;4996000;28;20665;-69
2023/03/04 18:57:29;;;;;;;51.53;25.70;;;;;;;;;;4995705;28;20666;-69
2023/03/04 18:59:58;;;;;;;49.47;24.90;;;;;;;;;;4996508;28;20206;-67
2023/03/04 19:02:30;;;;;;;50.70;25.30;;;;;;;;;;4996261;28;20230;-72
2023/03/04 19:04:58;;;;;;;57.28;27.40;;;;;;;;;;4995866;28;20191;-73
2023/03/04 19:07:25;;;;;;;55.30;26.70;;;;;;;;;;4995990;28;20310;-74
2023/03/04 19:09:52;;;;;;;55.33;25.77;;;;;;;;;;4995557;28;20694;-73
2023/03/04 19:12:20;;;;;;;48.88;24.90;;;;;;;;;;4995309;28;20722;-71
2023/03/04 19:14:47;;;;;;;47.30;24.67;;;;;;;;;;4995701;28;20209;-73
2023/03/04 19:17:14;;;;;;;45.88;24.05;;;;;;;;;;4995799;28;20207;-72
2023/03/04 19:19:42;;;;;;;50.15;25.13;;;;;;;;;;4995232;28;20199;-73
2023/03/04 19:22:09;;;;;;;49.83;25.63;;;;;;;;;;4995379;28;20234;-72
2023/03/04 19:24:36;;;;;;;52.13;25.92;;;;;;;;;;4995266;28;20218;-73
2023/03/04 19:27:04;;;;;;;61.28;27.10;;;;;;;;;;4995465;28;20210;-73
2023/03/04 19:29:31;;;;;;;47.70;25.65;;;;;;;;;;4995305;28;20202;-72
2023/03/04 19:31:58;;;;;;;54.42;25.48;;;;;;;;;;4994765;28;20223;-73
2023/03/04 19:34:25;;;;;;;49.00;24.40;;;;;;;;;;4995311;28;20230;-71
2023/03/04 19:36:54;;;;;;;54.53;25.83;;;;;;;;;;4995174;28;20213;-71
2023/03/04 19:39:21;;;;;;;60.05;26.27;;;;;;;;;;4995336;28;20206;-72
2023/03/04 19:41:48;;;;;;;54.58;25.45;;;;;;;;;;4995147;28;20234;-71
2023/03/04 19:44:15;;;;;;;48.90;24.88;;;;;;;;;;4995014;28;20206;-72
2023/03/04 19:46:42;;;;;;;46.65;24.73;;;;;;;;;;4995249;28;20202;-73
2023/03/04 19:49:09;;;;;;;58.35;26.13;;;;;;;;;;4995215;28;20203;-72
2023/03/04 19:51:36;;;;;;;48.25;25.27;;;;;;;;;;4994571;28;20702;-71
2023/03/04 19:54:05;;;;;;;55.72;25.55;;;;;;;;;;4994928;28;20214;-73
2023/03/04 19:56:32;;;;;;;52.58;26.08;;;;;;;;;;4994924;28;20206;-72
2023/03/04 19:58:59;;;;;;;51.28;25.58;;;;;;;;;;4995012;28;20206;-71
2023/03/04 20:01:27;;;;;;;63.53;27.77;;;;;;;;;;4994692;28;20206;-70
2023/03/04 20:03:55;;;;;;;49.95;25.50;;;;;;;;;;4994763;28;20244;-71
2023/03/04 20:06:22;;;;;;;54.60;26.58;;;;;;;;;;4994695;28;20280;-73
2023/03/04 20:08:50;;;;;;;59.30;27.73;;;;;;;;;;4994762;28;20213;-72
2023/03/04 20:11:18;;;;;;;55.65;25.75;;;;;;;;;;4994637;28;20202;-72
2023/03/04 20:13:45;;;;;;;52.10;25.75;;;;;;;;;;4995635;28;20211;-70
2023/03/04 20:16:13;;;;;;;58.30;26.48;;;;;;;;;;4994697;28;20214;-70
2023/03/04 20:18:41;;;;;;;52.75;26.70;;;;;;;;;;4994867;28;20206;-70
2023/03/04 20:21:08;;;;;;;61.08;26.55;;;;;;;;;;4994327;28;20261;-70
2023/03/04 20:23:35;;;;;;;56.13;25.30;;;;;;;;;;4993915;28;20575;-70
2023/03/04 20:26:02;;;;;;;67.03;27.60;;;;;;;;;;4994487;28;20627;-70
2023/03/04 20:28:31;;;;;;;54.80;25.95;;;;;;;;;;4994325;28;20210;-70
2023/03/04 20:31:11;;;;;;;59.72;27.00;;;;;;;;;;4994525;28;20209;-70
2023/03/04 20:33:38;;;;;;;51.88;27.27;;;;;;;;;;4994214;28;20238;-70
2023/03/04 20:36:05;;;;;;;55.25;26.42;;;;;;;;;;4994348;28;20210;-70
2023/03/04 20:38:32;;;;;;;57.47;27.60;;;;;;;;;;4993827;28;20670;-70
2023/03/04 20:40:59;;;;;;;53.22;25.73;;;;;;;;;;4994197;28;20202;-71
2023/03/04 20:43:28;;;;;;;54.92;26.50;;;;;;;;;;4993685;28;20649;-71
2023/03/04 20:45:56;;;;;;;55.40;28.10;;;;;;;;;;4994324;28;20210;-69
2023/03/04 20:48:23;;;;;;;56.65;26.77;;;;;;;;;;4994240;28;20227;-69
2023/03/04 20:50:50;;;;;;;66.70;26.92;;;;;;;;;;4994353;28;20261;-67
2023/03/04 20:53:17;;;;;;;61.63;27.23;;;;;;;;;;4994082;28;20230;-72
2023/03/04 20:55:44;;;;;;;60.95;27.35;;;;;;;;;;4994184;28;20206;-70
2023/03/04 20:58:11;;;;;;;57.85;26.80;;;;;;;;;;4993932;28;20562;-71
2023/03/04 21:00:39;;;;;;;63.72;27.48;;;;;;;;;;4994018;28;20210;-71
2023/03/04 21:03:07;;;;;;;63.13;27.20;;;;;;;;;;4994507;28;20226;-71
2023/03/04 21:05:34;;;;;;;58.05;27.13;;;;;;;;;;4994381;28;20211;-73
2023/03/04 21:08:01;;;;;;;59.58;27.00;;;;;;;;;;4994107;28;20207;-71
2023/03/04 21:10:28;;;;;;;63.47;26.92;;;;;;;;;;4994004;28;20206;-71
2023/03/04 21:12:55;;;;;;;59.05;27.25;;;;;;;;;;4993369;28;20591;-70
2023/03/04 21:15:22;;;;;;;65.10;26.90;;;;;;;;;;4994055;28;20227;-71
2023/03/04 21:17:49;;;;;;;57.97;27.15;;;;;;;;;;4994014;28;20214;-72
2023/03/04 21:20:18;;;;;;;55.60;27.35;;;;;;;;;;4993891;28;20209;-72
2023/03/04 21:22:45;;;;;;;64.97;28.23;;;;;;;;;;4993806;28;20230;-73
2023/03/04 21:25:12;;;;;;;56.78;26.52;;;;;;;;;;4993934;28;20199;-72
2023/03/04 21:27:41;;;;;;;63.95;25.58;;;;;;;;;;4993898;28;20207;-72
2023/03/04 21:30:09;;;;;;;51.97;26.45;;;;;;;;;;4993868;28;20199;-72
2023/03/04 21:32:36;;;;;;;54.13;26.20;;;;;;;;;;4993643;28;20249;-72
2023/03/04 21:35:04;;;;;;;59.55;25.70;;;;;;;;;;4993711;28;20223;-72
2023/03/04 21:37:32;;;;;;;56.25;24.30;;;;;;;;;;4993730;28;20238;-71
2023/03/04 21:40:00;;;;;;;56.38;24.38;;;;;;;;;;4993731;28;20203;-72
2023/03/04 21:42:27;;;;;;;55.75;26.17;;;;;;;;;;4993703;28;20229;-72
2023/03/04 21:44:54;;;;;;;55.13;24.50;;;;;;;;;;4993576;28;20199;-71
2023/03/04 21:47:21;;;;;;;56.65;26.83;;;;;;;;;;4993644;28;20227;-72
2023/03/04 21:49:49;;;;;;;51.70;25.40;;;;;;;;;;4993582;28;20202;-73
2023/03/04 21:52:16;;;;;;;57.92;26.55;;;;;;;;;;4993584;28;20227;-73
2023/03/04 21:54:44;;;;;;;54.97;25.55;;;;;;;;;;4994522;28;20215;-72
2023/03/04 21:57:12;;;;;;;57.53;25.23;;;;;;;;;;4997834;28;20230;-72
2023/03/04 21:59:39;;;;;;;53.42;24.20;;;;;;;;;;4997527;28;20217;-71
2023/03/04 22:02:07;;;;;;;53.97;25.45;;;;;;;;;;4996977;28;20288;-71
2023/03/04 22:04:34;;;;;;;52.15;24.80;;;;;;;;;;4996841;28;20203;-72
2023/03/04 22:07:01;;;;;;;49.83;23.45;;;;;;;;;;4996694;28;20203;-71
2023/03/04 22:09:28;;;;;;;50.97;24.20;;;;;;;;;;4996766;28;20206;-71
2023/03/04 22:11:57;;;;;;;53.70;23.25;;;;;;;;;;4996408;28;20237;-72
2023/03/04 22:14:26;;;;;;;50.20;23.48;;;;;;;;;;4996596;28;20255;-71
2023/03/04 22:16:53;;;;;;;51.33;24.55;;;;;;;;;;4997069;28;20207;-71
2023/03/04 22:19:20;;;;;;;48.65;23.73;;;;;;;;;;4996840;28;20199;-70
2023/03/04 22:21:47;;;;;;;52.05;23.40;;;;;;;;;;4996507;28;20230;-71
2023/03/04 22:24:14;;;;;;;49.72;23.50;;;;;;;;;;4996655;28;20253;-71
2023/03/04 22:26:41;;;;;;;46.92;24.10;;;;;;;;;;4996584;28;20211;-72
2023/03/04 22:29:09;;;;;;;50.83;24.40;;;;;;;;;;4996384;28;20669;-71
2023/03/04 22:31:37;;;;;;;51.55;25.80;;;;;;;;;;4997909;28;20218;-72
2023/03/04 22:34:05;;;;;;;50.28;23.52;;;;;;;;;;5000259;28;20226;-71
2023/03/04 22:36:33;;;;;;;51.42;22.70;;;;;;;;;;4999671;28;20207;-72
2023/03/04 22:39:01;;;;;;;45.13;22.77;;;;;;;;;;4996805;28;20257;-71
2023/03/04 22:41:29;;;;;;;51.50;24.13;;;;;;;;;;4996219;28;20650;-72
2023/03/04 22:43:56;;;;;;;48.25;23.17;;;;;;;;;;4996237;28;20257;-71
2023/03/04 22:46:25;;;;;;;44.78;23.20;;;;;;;;;;4996633;28;20207;-72
2023/03/04 22:48:53;;;;;;;53.70;23.40;;;;;;;;;;4996068;28;20203;-73
2023/03/04 22:51:21;;;;;;;49.63;23.60;;;;;;;;;;4996101;28;20203;-72
2023/03/04 22:53:48;;;;;;;49.40;24.55;;;;;;;;;;4996142;28;20269;-72
2023/03/04 22:56:15;;;;;;;51.13;23.85;;;;;;;;;;4996239;28;20250;-72
2023/03/04 22:58:43;;;;;;;47.20;24.02;;;;;;;;;;4996332;28;20198;-73
2023/03/04 23:01:10;;;;;;;54.30;24.50;;;;;;;;;;4996876;28;20213;-72
2023/03/04 23:03:39;;;;;;;48.28;23.38;;;;;;;;;;4996557;28;20547;-72
2023/03/04 23:06:08;;;;;;;54.20;24.45;;;;;;;;;;4996974;28;20205;-72
2023/03/04 23:08:36;;;;;;;58.67;24.55;;;;;;;;;;4996644;28;20207;-73
2023/03/04 23:11:07;;;;;;;50.30;24.60;;;;;;;;;;4996939;28;20209;-72
2023/03/04 23:13:34;;;;;;;56.03;25.42;;;;;;;;;;4997231;28;20234;-74
2023/03/04 23:16:02;;;;;;;54.35;25.00;;;;;;;;;;4996562;28;20229;-74
2023/03/04 23:18:30;;;;;;;59.25;26.95;;;;;;;;;;4996161;28;20617;-73
2023/03/04 23:20:59;;;;;;;56.35;25.95;;;;;;;;;;4995388;28;20199;-72
2023/03/04 23:23:26;;;;;;;61.22;26.77;;;;;;;;;;4995296;28;20281;-71
2023/03/04 23:25:53;;;;;;;58.80;26.85;;;;;;;;;;4995345;28;20205;-70
2023/03/04 23:28:20;;;;;;;55.63;26.30;;;;;;;;;;4995272;28;20203;-71
2023/03/04 23:30:47;;;;;;;51.50;25.88;;;;;;;;;;4995452;28;20210;-70
2023/03/04 23:33:14;;;;;;;58.28;26.73;;;;;;;;;;4995370;28;20237;-73
2023/03/04 23:35:41;;;;;;;56.95;26.17;;;;;;;;;;4995237;28;20593;-72
2023/03/04 23:38:09;;;;;;;56.00;26.23;;;;;;;;;;4995196;28;20198;-72
2023/03/04 23:40:36;;;;;;;52.53;25.63;;;;;;;;;;4995019;28;20257;-72
2023/03/04 23:43:03;;;;;;;57.75;26.75;;;;;;;;;;4995076;28;20731;-72
2023/03/04 23:45:32;;;;;;;55.28;25.17;;;;;;;;;;4995659;28;20592;-72
2023/03/04 23:47:59;;;;;;;54.08;25.15;;;;;;;;;;4996149;28;20202;-72
2023/03/04 23:50:26;;;;;;;53.40;24.95;;;;;;;;;;4995579;28;20211;-71
2023/03/04 23:52:53;;;;;;;52.50;25.65;;;;;;;;;;5008860;28;20223;-72
2023/03/04 23:55:21;;;;;;;53.13;24.40;;;;;;;;;;5016489;28;20229;-72
2023/03/04 23:57:48;;;;;;;51.15;23.67;;;;;;;;;;5014692;28;20282;-72
